Time;durP1;ratioP1;P1;durP2;ratioP2;P2;SDS_P1;SDS_P2;PMS_P1;PMS_P2;Temp;Humidity;BMP_temperature;BMP_pressure;BME280_temperature;BME280_humidity;BME280_pressure;Samples;Min_cycle;Max_cycle;Signal;HPM_P1;HPM_P2
2022/04/26 03:38:31;;;;;;;0.80;0.30;;;;;;;18.55;55.15;100289.97;5005502;28;20104;-43
2022/04/26 03:40:57;;;;;;;1.60;0.40;;;;;;;18.55;55.04;100287.34;5008725;28;20470;-46
2022/04/26 03:43:22;;;;;;;1.38;0.30;;;;;;;18.55;55.13;100293.41;5009108;28;20030;-43
2022/04/26 03:45:48;;;;;;;1.20;0.30;;;;;;;18.55;55.16;100292.59;5009578;28;20048;-45
2022/04/26 03:48:14;;;;;;;0.70;0.30;;;;;;;18.55;55.05;100292.59;5005750;28;20030;-41
2022/04/26 03:50:39;;;;;;;0.93;0.20;;;;;;;18.55;55.12;100292.59;5008519;28;20403;-44
2022/04/26 03:53:05;;;;;;;1.05;0.35;;;;;;;18.54;55.02;100291.78;5003617;28;20037;-42
2022/04/26 03:55:30;;;;;;;1.30;0.25;;;;;;;18.53;55.20;100292.81;5007337;28;20378;-47
2022/04/26 03:57:57;;;;;;;0.55;0.30;;;;;;;18.53;55.17;100294.63;5007731;28;20032;-43
2022/04/26 04:00:23;;;;;;;0.70;0.20;;;;;;;18.53;55.14;100302.53;5008288;28;20080;-46
2022/04/26 04:02:49;;;;;;;0.68;0.20;;;;;;;18.53;55.15;100297.28;5005927;28;20072;-45
2022/04/26 04:05:14;;;;;;;0.75;0.20;;;;;;;18.53;55.20;100297.28;5009540;28;20038;-45
2022/04/26 04:07:40;;;;;;;0.75;0.20;;;;;;;18.52;55.27;100303.56;5006275;28;20041;-45
2022/04/26 04:10:06;;;;;;;1.17;0.22;;;;;;;18.53;55.20;100302.53;5008053;28;20129;-45
2022/04/26 04:12:32;;;;;;;1.27;0.30;;;;;;;18.52;55.24;100306.19;5007542;28;20481;-42
2022/04/26 04:14:57;;;;;;;1.30;0.22;;;;;;;18.53;55.16;100307.81;5009194;28;20100;-42
2022/04/26 04:17:22;;;;;;;0.80;0.20;;;;;;;18.53;55.15;100313.91;5005990;28;20122;-41
2022/04/26 04:19:48;;;;;;;0.73;0.20;;;;;;;18.54;55.10;100314.72;5009225;28;20057;-45
2022/04/26 04:22:14;;;;;;;1.05;0.20;;;;;;;18.55;55.24;100322.44;5007762;28;20084;-47
2022/04/26 04:24:40;;;;;;;0.52;0.20;;;;;;;18.57;55.22;100324.88;5006439;28;20033;-44
2022/04/26 04:27:05;;;;;;;0.77;0.45;;;;;;;18.56;55.33;100329.34;5005429;28;20030;-45
2022/04/26 04:29:31;;;;;;;0.50;0.20;;;;;;;18.58;55.58;100326.50;5008178;28;20033;-48
2022/04/26 04:31:56;;;;;;;3.13;0.30;;;;;;;18.59;55.51;100330.78;5006723;28;20029;-43
2022/04/26 04:34:22;;;;;;;3.42;0.30;;;;;;;18.58;55.75;100332.59;5007648;28;20188;-48
2022/04/26 04:36:49;;;;;;;1.27;0.20;;;;;;;18.61;55.77;100336.69;5008255;28;20062;-43
2022/04/26 04:39:19;;;;;;;1.70;0.20;;;;;;;18.61;55.88;100341.97;5006549;28;20040;-43
2022/04/26 04:41:47;;;;;;;0.70;0.20;;;;;;;18.62;55.83;100342.78;5007346;28;20038;-43
2022/04/26 04:44:13;;;;;;;0.90;0.30;;;;;;;18.60;55.93;100337.72;5008592;28;20033;-46
2022/04/26 04:46:38;;;;;;;2.05;0.40;;;;;;;18.58;56.03;100337.88;5005757;28;20370;-48
2022/04/26 04:49:04;;;;;;;3.75;0.30;;;;;;;18.59;56.22;100333.41;5007563;28;20037;-43
2022/04/26 04:51:29;;;;;;;1.27;0.60;;;;;;;18.61;56.57;100341.97;5006776;28;20037;-45
2022/04/26 04:53:55;;;;;;;2.95;0.30;;;;;;;18.61;56.78;100339.34;5006892;28;20057;-46
2022/04/26 04:56:23;;;;;;;1.75;0.30;;;;;;;18.58;56.61;100344.97;5006541;28;20034;-43
2022/04/26 04:58:48;;;;;;;0.68;0.20;;;;;;;18.59;56.50;100343.97;5006135;28;20034;-46
2022/04/26 05:01:14;;;;;;;1.45;0.40;;;;;;;18.59;56.41;100343.97;5005816;28;20029;-44
2022/04/26 05:03:39;;;;;;;1.02;0.20;;;;;;;18.57;56.29;100348.63;5006382;28;20037;-45
2022/04/26 05:06:04;;;;;;;3.22;0.45;;;;;;;18.57;56.16;100352.06;5007988;28;20026;-41
2022/04/26 05:08:30;;;;;;;2.05;0.30;;;;;;;18.56;56.02;100355.72;5004485;28;20048;-43
2022/04/26 05:10:55;;;;;;;2.30;0.30;;;;;;;18.56;56.11;100350.44;5006399;28;20116;-46
2022/04/26 05:13:21;;;;;;;1.23;0.30;;;;;;;18.56;56.06;100358.38;5006383;28;20126;-43
2022/04/26 05:15:47;;;;;;;2.03;0.22;;;;;;;18.55;56.03;100358.56;5006783;28;20125;-43
2022/04/26 05:18:12;;;;;;;1.08;0.25;;;;;;;18.54;55.91;100359.56;5006494;28;20444;-49
2022/04/26 05:20:38;;;;;;;1.35;0.30;;;;;;;18.53;55.83;100358.75;5006711;28;20551;-43
2022/04/26 05:25:48;;;;;;;1.08;0.28;;;;;;;18.53;55.93;100364.03;5006035;28;20119;-46
2022/04/26 05:28:14;;;;;;;1.25;0.20;;;;;;;18.53;55.82;100364.03;5007790;28;20423;-43
2022/04/26 05:30:39;;;;;;;2.45;0.20;;;;;;;18.53;55.80;100364.03;5005981;28;20473;-41
2022/04/26 05:33:04;;;;;;;1.27;0.30;;;;;;;18.54;55.78;100356.94;5007915;28;20053;-43
2022/04/26 05:35:31;;;;;;;3.13;0.20;;;;;;;18.53;55.74;100355.31;5004846;28;20410;-47
2022/04/26 05:37:56;;;;;;;0.73;0.20;;;;;;;18.54;55.80;100362.22;5005653;28;20076;-45
2022/04/26 05:40:21;;;;;;;1.30;0.50;;;;;;;18.55;55.73;100358.56;5006152;28;20033;-44
2022/04/26 05:42:47;;;;;;;1.02;0.20;;;;;;;18.53;55.58;100361.41;5004949;28;20511;-44
2022/04/26 05:45:12;;;;;;;1.58;0.20;;;;;;;18.54;55.60;100362.22;5006686;28;20040;-44
2022/04/26 05:47:42;;;;;;;2.63;0.60;;;;;;;18.52;55.54;100358.97;5005707;28;20473;-45
2022/04/26 05:50:12;;;;;;;1.75;0.20;;;;;;;18.53;55.39;100363.22;5005310;28;20509;-45
2022/04/26 05:52:38;;;;;;;2.55;0.30;;;;;;;18.52;55.59;100357.13;5005580;28;20899;-45
2022/04/26 05:55:05;;;;;;;1.17;0.20;;;;;;;18.51;55.45;100355.50;5007424;28;20093;-45
2022/04/26 05:57:31;;;;;;;0.70;0.30;;;;;;;18.52;55.46;100358.97;5005387;28;20537;-46
2022/04/26 05:59:57;;;;;;;3.08;0.30;;;;;;;18.52;55.56;100361.59;5018070;28;20452;-45
2022/04/26 06:02:22;;;;;;;1.05;0.30;;;;;;;18.50;55.52;100360.97;5006001;28;20030;-45
2022/04/26 06:04:47;;;;;;;1.15;0.22;;;;;;;18.49;55.49;100362.81;5006865;28;20037;-43
2022/04/26 06:07:13;;;;;;;0.88;0.20;;;;;;;18.49;55.45;100369.91;5006867;28;20030;-42
2022/04/26 06:09:38;;;;;;;1.00;0.25;;;;;;;18.49;55.57;100360.16;5007132;28;20261;-44
2022/04/26 06:12:04;;;;;;;2.53;0.40;;;;;;;18.48;55.59;100365.66;5006927;28;20473;-43
2022/04/26 06:14:30;;;;;;;0.90;0.20;;;;;;;18.48;55.47;100361.19;5003918;28;20737;-43
2022/04/26 06:16:55;;;;;;;1.50;0.40;;;;;;;18.47;55.44;100366.66;5006951;28;20022;-46
2022/04/26 06:19:21;;;;;;;1.60;0.30;;;;;;;18.46;55.43;100368.47;5006047;28;20418;-44
2022/04/26 06:21:46;;;;;;;0.80;0.20;;;;;;;18.46;55.62;100370.31;5003139;28;20073;-43
2022/04/26 06:24:12;;;;;;;0.60;0.13;;;;;;;18.45;55.49;100374.75;5006882;28;20040;-48
2022/04/26 06:26:37;;;;;;;1.45;0.10;;;;;;;18.45;55.55;100364.22;5006846;28;20038;-47
2022/04/26 06:29:03;;;;;;;1.40;0.20;;;;;;;18.45;55.66;100369.50;5006793;28;20026;-44
2022/04/26 06:31:28;;;;;;;1.40;0.25;;;;;;;18.46;55.75;100375.56;5006545;28;20028;-43
2022/04/26 06:33:54;;;;;;;0.70;0.28;;;;;;;18.46;55.69;100381.66;5006337;28;20033;-44
2022/04/26 06:36:19;;;;;;;1.27;0.30;;;;;;;18.48;55.76;100384.09;5005119;28;20398;-47
2022/04/26 06:38:45;;;;;;;2.63;0.40;;;;;;;18.49;55.92;100383.09;5002524;28;20029;-41
2022/04/26 06:41:10;;;;;;;0.75;0.20;;;;;;;18.50;55.79;100382.09;5000345;28;20377;-42
2022/04/26 06:43:36;;;;;;;1.38;0.17;;;;;;;18.52;56.31;100388.78;4994339;28;20040;-43
2022/04/26 06:46:01;;;;;;;1.27;0.38;;;;;;;18.56;56.98;100381.31;5004536;28;20026;-44
2022/04/26 06:48:27;;;;;;;1.90;0.40;;;;;;;18.63;57.33;100382.16;5002560;28;20092;-46
2022/04/26 06:50:56;;;;;;;1.33;0.30;;;;;;;18.64;57.57;100373.25;5005413;28;20056;-44
2022/04/26 06:53:22;;;;;;;2.90;0.40;;;;;;;18.64;57.64;100373.25;5004232;28;20065;-45
2022/04/26 06:55:47;;;;;;;4.45;0.30;;;;;;;18.62;57.67;100372.63;5006479;28;20045;-46
2022/04/26 06:58:13;;;;;;;5.53;0.50;;;;;;;18.64;57.63;100378.50;5005541;28;20080;-41
2022/04/26 07:00:38;;;;;;;4.07;0.35;;;;;;;18.66;57.82;100375.69;5005352;28;20433;-45
2022/04/26 07:03:05;;;;;;;5.22;0.60;;;;;;;18.68;58.38;100371.84;5006114;28;20026;-45
2022/04/26 07:05:30;;;;;;;0.80;0.30;;;;;;;18.69;57.80;100376.09;5006540;28;20030;-42
2022/04/26 07:07:56;;;;;;;1.85;0.40;;;;;;;18.65;57.96;100364.31;5006317;28;20038;-45
2022/04/26 07:10:22;;;;;;;2.58;0.40;;;;;;;18.64;57.73;100367.97;5006514;28;20041;-45
2022/04/26 07:12:48;;;;;;;1.38;0.15;;;;;;;18.65;57.50;100369.59;5006239;28;20059;-46
2022/04/26 07:15:14;;;;;;;1.02;0.13;;;;;;;18.64;57.42;100373.25;5004981;28;20025;-49
2022/04/26 07:17:43;;;;;;;1.58;0.40;;;;;;;18.63;57.24;100373.44;5002822;28;20480;-45
2022/04/26 07:20:09;;;;;;;0.80;0.25;;;;;;;18.62;57.04;100366.53;5006039;28;20565;-45
2022/04/26 07:22:38;;;;;;;1.27;0.20;;;;;;;18.60;56.96;100374.66;5002791;28;20126;-45
2022/04/26 07:25:07;;;;;;;0.90;0.20;;;;;;;18.59;56.79;100375.63;5006091;28;20053;-41
2022/04/26 07:27:34;;;;;;;0.40;0.20;;;;;;;18.58;56.65;100376.63;5006455;28;20026;-44
2022/04/26 07:29:59;;;;;;;0.85;0.20;;;;;;;18.60;56.63;100379.06;5005718;28;20026;-47
2022/04/26 07:35:10;;;;;;;2.67;0.20;;;;;;;18.57;56.67;100377.66;5006397;28;20041;-43
2022/04/26 07:37:37;;;;;;;0.65;0.30;;;;;;;18.57;56.38;100377.66;5002688;28;20080;-43
2022/04/26 07:40:03;;;;;;;0.50;0.20;;;;;;;18.57;56.16;100383.75;5004057;28;20018;-45
2022/04/26 07:42:29;;;;;;;2.95;0.20;;;;;;;18.58;57.48;100384.56;5004189;28;20107;-42
2022/04/26 07:44:54;;;;;;;12.35;1.08;;;;;;;18.57;57.26;100383.75;5004498;28;20042;-43
2022/04/26 07:47:24;;;;;;;14.93;1.17;;;;;;;18.56;57.21;100378.66;5007816;28;20053;-44
2022/04/26 07:49:50;;;;;;;10.52;0.45;;;;;;;18.57;57.24;100375.00;5008071;28;20157;-44
2022/04/26 07:52:16;;;;;;;7.30;0.30;;;;;;;18.58;57.21;100381.91;5005812;28;20033;-42
2022/04/26 07:54:42;;;;;;;5.68;0.30;;;;;;;18.58;57.02;100384.56;5000952;28;20504;-42
2022/04/26 07:57:08;;;;;;;5.18;0.30;;;;;;;18.58;56.57;100384.56;4989822;28;20786;-42
2022/04/26 07:59:33;;;;;;;3.72;0.25;;;;;;;18.57;56.12;100385.56;4989786;28;20045;-41
2022/04/26 08:01:59;;;;;;;3.33;0.20;;;;;;;18.55;56.14;100385.75;4989400;28;20027;-43
2022/04/26 08:04:24;;;;;;;2.28;0.20;;;;;;;18.56;55.90;100390.03;4990347;28;20117;-41
2022/04/26 08:06:50;;;;;;;2.38;0.28;;;;;;;18.55;55.97;100384.94;4989836;28;20042;-41
2022/04/26 08:09:15;;;;;;;1.05;0.30;;;;;;;18.54;56.03;100384.13;4989779;28;20111;-43
2022/04/26 08:11:40;;;;;;;5.75;0.20;;;;;;;18.54;55.79;100397.31;4989425;28;20058;-41
2022/04/26 08:14:06;;;;;;;2.03;0.20;;;;;;;18.53;55.72;100397.53;4989933;28;20109;-43
2022/04/26 08:16:31;;;;;;;2.88;0.30;;;;;;;18.53;55.74;100386.97;4989518;28;20453;-42
2022/04/26 08:18:57;;;;;;;3.55;0.20;;;;;;;18.53;55.74;100397.53;4989684;28;20065;-42
2022/04/26 08:21:22;;;;;;;2.13;0.20;;;;;;;18.51;55.65;100399.53;4989696;28;20105;-41
2022/04/26 08:29:18;;;;;;;1.25;0.20;;;;;;;18.48;55.52;100399.94;4990010;28;20048;-43
2022/04/26 08:31:43;;;;;;;2.78;0.22;;;;;;;18.49;55.59;100406.84;4989568;28;20253;-43
2022/04/26 08:34:09;;;;;;;1.85;0.20;;;;;;;18.49;55.54;100406.84;4989234;28;20113;-42
2022/04/26 08:36:35;;;;;;;8.50;0.30;;;;;;;18.48;55.54;100413.13;4989607;28;20022;-42
2022/04/26 08:39:01;;;;;;;1.80;0.20;;;;;;;18.48;55.51;100413.13;4989555;28;20041;-43
2022/04/26 08:41:26;;;;;;;0.63;0.30;;;;;;;18.47;55.37;100424.69;4989490;28;20058;-43
2022/04/26 08:43:51;;;;;;;3.60;0.20;;;;;;;18.47;55.36;100419.41;4989380;28;20653;-43
2022/04/26 08:46:17;;;;;;;0.95;0.13;;;;;;;18.48;55.40;100426.31;4989091;28;20271;-42
2022/04/26 08:51:28;;;;;;;2.30;0.10;;;;;;;18.46;55.25;100423.06;4989738;28;20089;-42
2022/04/26 08:53:54;;;;;;;1.77;0.28;;;;;;;18.48;55.25;100428.97;4989091;28;20346;-43
2022/04/26 08:56:20;;;;;;;1.00;0.17;;;;;;;18.48;55.30;100423.69;4999846;28;20052;-42
2022/04/26 08:58:46;;;;;;;0.73;0.20;;;;;;;18.48;55.36;100418.41;5008444;28;20034;-44
2022/04/26 09:01:24;;;;;;;1.33;0.30;;;;;;;18.48;55.17;100421.03;5008190;28;20107;-42
2022/04/26 09:03:55;;;;;;;1.88;0.20;;;;;;;18.48;55.33;100426.31;5008476;28;20038;-42
2022/04/26 09:06:39;;;;;;;1.38;0.30;;;;;;;18.45;55.32;100426.72;5008518;28;20036;-42
2022/04/26 09:09:21;;;;;;;1.58;0.20;;;;;;;18.46;55.35;100430.97;5008823;28;20108;-41
2022/04/26 09:11:47;;;;;;;1.25;0.30;;;;;;;18.47;55.38;100441.34;5007357;28;20054;-41
2022/04/26 09:14:34;;;;;;;0.90;0.20;;;;;;;18.46;55.19;100433.63;5004451;28;20081;-42
2022/04/26 09:17:12;;;;;;;0.40;0.10;;;;;;;18.48;55.45;100434.22;4999664;28;20029;-44
2022/04/26 09:19:52;;;;;;;1.13;0.20;;;;;;;18.47;55.70;100438.69;5016872;28;20050;-43
2022/04/26 09:22:26;;;;;;;2.45;0.40;;;;;;;18.49;55.70;100438.50;5005369;28;20030;-44
2022/04/26 09:24:57;;;;;;;0.80;0.10;;;;;;;18.50;55.75;100440.94;4999590;28;20181;-44
2022/04/26 09:27:23;;;;;;;0.60;0.10;;;;;;;18.52;55.88;100438.09;5002615;28;20060;-45
2022/04/26 09:29:49;;;;;;;1.17;0.10;;;;;;;18.51;55.83;100439.94;5006955;28;20105;-43
2022/04/26 09:32:15;;;;;;;1.75;0.20;;;;;;;18.52;55.98;100444.19;5005334;28;20116;-43
2022/04/26 09:34:41;;;;;;;4.40;0.50;;;;;;;18.53;55.78;100443.19;5005276;28;20029;-44
2022/04/26 09:37:07;;;;;;;1.30;0.10;;;;;;;18.54;55.87;100436.09;5005487;28;20061;-43
2022/04/26 09:39:32;;;;;;;1.23;0.20;;;;;;;18.53;55.99;100439.72;5005097;28;20057;-43
2022/04/26 09:41:58;;;;;;;1.55;0.20;;;;;;;18.53;56.01;100442.38;5005617;28;20523;-42
2022/04/26 09:44:34;;;;;;;0.93;0.20;;;;;;;18.50;55.93;100446.22;5004467;28;20033;-43
2022/04/26 09:47:00;;;;;;;2.63;0.20;;;;;;;18.51;55.96;100442.56;5003619;28;20026;-43
2022/04/26 09:49:26;;;;;;;0.90;0.20;;;;;;;18.51;55.75;100442.56;5004753;28;20345;-42
2022/04/26 09:51:58;;;;;;;2.17;0.30;;;;;;;18.51;55.82;100445.22;5004865;28;20026;-45
2022/04/26 09:54:24;;;;;;;1.67;0.20;;;;;;;18.52;55.77;100433.66;5003794;28;20041;-44
2022/04/26 09:56:50;;;;;;;2.55;0.20;;;;;;;18.53;55.76;100434.47;5004923;28;20383;-45
2022/04/26 09:59:42;;;;;;;2.40;0.10;;;;;;;18.50;55.68;100437.50;5005116;28;20061;-45
2022/04/26 10:02:13;;;;;;;0.75;0.10;;;;;;;18.52;55.67;100432.84;5001206;28;20839;-43
2022/04/26 10:04:46;;;;;;;1.27;0.30;;;;;;;18.51;55.81;100431.19;4999514;28;20030;-43
2022/04/26 10:07:19;;;;;;;0.30;0.10;;;;;;;18.51;55.66;100431.19;5001625;28;20033;-51
2022/04/26 10:09:46;;;;;;;1.33;0.17;;;;;;;18.51;55.82;100426.75;5001526;28;20555;-41
2022/04/26 10:12:12;;;;;;;0.93;0.30;;;;;;;18.51;56.14;100423.28;5001362;28;20050;-43
2022/04/26 10:14:38;;;;;;;0.93;0.10;;;;;;;18.52;56.21;100423.09;4995812;28;20072;-43
2022/04/26 10:17:04;;;;;;;0.70;0.28;;;;;;;18.53;56.16;100429.19;5003227;28;20033;-47
2022/04/26 10:19:48;;;;;;;1.52;0.10;;;;;;;18.49;56.44;100417.41;5003174;28;20532;-43
2022/04/26 10:22:18;;;;;;;0.98;0.22;;;;;;;18.51;56.56;100415.38;5004691;28;20449;-46
2022/04/26 10:25:13;;;;;;;1.92;0.20;;;;;;;18.52;57.51;100419.63;5002667;28;20034;-44
2022/04/26 10:27:40;;;;;;;2.10;0.60;;;;;;;18.64;58.32;100420.72;5002523;28;20115;-50
2022/04/26 10:30:05;;;;;;;1.65;0.60;;;;;;;18.76;59.03;100418.34;5001555;28;20105;-45
2022/04/26 10:32:38;;;;;;;2.22;0.40;;;;;;;18.85;59.36;100422.44;5002808;28;20645;-42
2022/04/26 10:35:25;;;;;;;1.20;0.40;;;;;;;18.94;59.74;100417.75;5004045;28;20034;-45
2022/04/26 10:38:12;;;;;;;3.45;0.40;;;;;;;19.00;60.69;100415.13;5002094;28;20036;-46
2022/04/26 10:41:13;;;;;;;2.53;0.57;;;;;;;19.09;66.86;100428.97;5001840;28;20034;-50
2022/04/26 10:43:42;;;;;;;1.42;0.40;;;;;;;19.18;67.28;100418.00;4937417;28;20141;-47
2022/04/26 10:46:12;;;;;;;2.65;0.47;;;;;;;19.20;66.91;100420.44;4939209;28;20205;-45
2022/04/26 10:48:38;;;;;;;3.00;0.30;;;;;;;19.17;66.22;100421.66;4940232;28;20262;-44
2022/04/26 10:51:34;;;;;;;2.13;0.40;;;;;;;19.13;67.79;100424.91;4939886;28;20573;-45
2022/04/26 10:54:04;;;;;;;1.15;0.45;;;;;;;19.15;69.48;100421.06;4936689;28;20395;-46
2022/04/26 10:56:32;;;;;;;5.32;1.25;;;;;;;19.37;73.37;100429.63;4938254;28;20110;-49
2022/04/26 10:58:58;;;;;;;2.42;1.27;;;;;;;19.69;75.46;100430.66;4942095;28;20310;-49
2022/04/26 11:01:29;;;;;;;3.65;0.55;;;;;;;19.95;74.84;100432.44;4939995;28;20035;-46
2022/04/26 11:03:55;;;;;;;11.25;2.00;;;;;;;20.18;75.29;100432.78;4938230;28;20434;-44
2022/04/26 11:06:42;;;;;;;7.00;0.98;;;;;;;20.04;70.85;100435.66;4940691;28;20273;-44
2022/04/26 11:09:12;;;;;;;2.28;0.95;;;;;;;19.91;68.34;100444.44;4938161;28;20066;-48
2022/04/26 11:11:47;;;;;;;41.60;17.98;;;;;;;19.83;66.95;100439.38;4940068;28;20423;-41
2022/04/26 11:14:14;;;;;;;86.63;41.45;;;;;;;19.79;65.30;100438.16;4939884;28;20554;-45
2022/04/26 11:16:59;;;;;;;43.70;21.75;;;;;;;19.71;63.73;100438.38;4946104;28;20229;-46
2022/04/26 11:19:30;;;;;;;21.40;9.93;;;;;;;19.65;62.82;100439.19;5001532;28;20501;-42
2022/04/26 11:21:57;;;;;;;14.98;6.40;;;;;;;19.60;62.02;100433.69;5002653;28;20026;-43
2022/04/26 11:29:52;;;;;;;12.55;4.88;;;;;;;19.41;61.75;100433.47;5004060;28;20104;-44
2022/04/26 11:32:48;;;;;;;14.93;5.28;;;;;;;19.35;61.46;100431.66;5004918;28;20465;-44
2022/04/26 11:35:14;;;;;;;9.73;4.67;;;;;;;19.35;61.36;100438.75;4991228;28;20520;-42
2022/04/26 11:37:53;;;;;;;14.15;5.45;;;;;;;19.31;61.16;100433.06;5001778;28;20288;-47
2022/04/26 11:40:21;;;;;;;11.35;4.60;;;;;;;19.31;60.92;100430.44;5004158;28;20045;-46
2022/04/26 11:42:47;;;;;;;14.13;5.38;;;;;;;19.30;60.90;100425.34;5003984;28;20037;-43
2022/04/26 11:45:12;;;;;;;12.32;4.88;;;;;;;19.27;60.49;100437.13;4998430;28;20091;-46
2022/04/26 11:47:38;;;;;;;10.13;4.20;;;;;;;19.26;60.65;100432.03;5004000;28;20153;-43
2022/04/26 11:50:11;;;;;;;13.20;4.40;;;;;;;19.23;60.52;100427.97;5005029;28;20033;-46
2022/04/26 11:52:37;;;;;;;11.73;3.25;;;;;;;19.20;60.54;100429.19;5005606;28;20056;-42
2022/04/26 11:55:02;;;;;;;13.85;2.50;;;;;;;19.18;60.67;100417.19;5001330;28;20489;-42
2022/04/26 11:57:28;;;;;;;12.38;3.05;;;;;;;19.15;60.33;100421.06;5000731;28;20588;-42
2022/04/26 11:59:54;;;;;;;8.68;3.03;;;;;;;19.15;60.12;100417.59;5004928;28;20108;-41
2022/04/26 12:02:20;;;;;;;8.48;3.38;;;;;;;19.14;59.99;100422.06;5006638;28;20033;-42
2022/04/26 12:04:46;;;;;;;9.90;4.28;;;;;;;19.13;59.62;100406.41;5004876;28;20416;-42
2022/04/26 12:07:12;;;;;;;10.38;3.35;;;;;;;19.13;59.16;100406.41;5008393;28;20295;-42
2022/04/26 12:09:37;;;;;;;10.77;3.90;;;;;;;19.12;59.31;100412.72;5004729;28;20117;-43
2022/04/26 12:12:05;;;;;;;9.82;3.83;;;;;;;19.10;59.21;100404.19;5008184;28;20056;-40
2022/04/26 12:14:30;;;;;;;9.45;3.35;;;;;;;19.10;58.93;100410.28;5008948;28;20369;-43
2022/04/26 12:16:56;;;;;;;8.90;3.58;;;;;;;19.09;59.01;100407.84;5004591;28;20384;-41
2022/04/26 12:19:35;;;;;;;9.50;3.50;;;;;;;19.06;58.72;100405.59;5002704;28;20040;-42
2022/04/26 12:22:02;;;;;;;10.30;3.88;;;;;;;19.06;58.78;100406.41;5003900;28;20037;-42
2022/04/26 12:24:29;;;;;;;10.35;3.65;;;;;;;19.05;58.66;100404.78;5006258;28;20397;-40
2022/04/26 12:26:57;;;;;;;10.00;3.50;;;;;;;19.05;58.65;100407.44;5006868;28;20037;-42
2022/04/26 12:29:24;;;;;;;6.68;2.45;;;;;;;19.04;58.50;100402.34;5009204;28;20030;-40
2022/04/26 12:31:49;;;;;;;9.45;3.30;;;;;;;19.03;58.67;100398.06;5003438;28;20065;-41
2022/04/26 12:34:29;;;;;;;9.82;3.55;;;;;;;18.99;58.29;100397.66;5007613;28;20033;-42
2022/04/26 12:37:11;;;;;;;10.18;3.47;;;;;;;18.98;58.31;100392.59;5003683;28;20036;-45
2022/04/26 12:39:43;;;;;;;10.07;3.42;;;;;;;18.96;58.11;100391.97;5002952;28;20054;-42
2022/04/26 12:42:14;;;;;;;10.18;3.40;;;;;;;18.96;58.05;100384.88;5003303;28;20030;-42
2022/04/26 12:44:55;;;;;;;10.15;3.83;;;;;;;18.94;58.14;100391.34;5004761;28;20393;-40
2022/04/26 12:50:32;;;;;;;9.07;3.28;;;;;;;18.93;57.98;100379.16;4975866;28;20045;-41
2022/04/26 12:53:04;;;;;;;6.68;2.83;;;;;;;18.91;58.09;100382.00;4957025;28;20038;-43
2022/04/26 12:55:37;;;;;;;6.65;2.65;;;;;;;18.90;57.95;100383.06;4981568;28;20050;-41
2022/04/26 12:58:06;;;;;;;10.90;2.97;;;;;;;18.89;58.08;100387.53;4967848;28;20034;-43
2022/04/26 13:00:33;;;;;;;8.07;3.05;;;;;;;18.90;58.36;100386.47;4962625;28;20062;-43
2022/04/26 13:03:03;;;;;;;8.27;3.53;;;;;;;18.90;58.44;100383.06;4959480;28;20129;-44
2022/04/26 13:05:35;;;;;;;6.30;2.75;;;;;;;18.88;58.67;100379.81;4960785;28;20061;-41
2022/04/26 13:08:02;;;;;;;9.20;2.55;;;;;;;18.87;58.30;100381.63;4957754;28;20042;-46
2022/04/26 13:10:27;;;;;;;5.95;2.38;;;;;;;18.90;58.48;100383.06;4958611;28;20330;-46
2022/04/26 13:12:53;;;;;;;6.43;2.08;;;;;;;18.90;58.69;100380.41;4956665;28;20262;-41
2022/04/26 13:15:23;;;;;;;7.05;2.47;;;;;;;18.89;58.64;100376.16;4957680;28;20129;-41
2022/04/26 13:17:49;;;;;;;8.00;2.70;;;;;;;18.89;58.65;100376.16;4955330;28;20035;-42
2022/04/26 13:20:14;;;;;;;4.80;2.25;;;;;;;18.89;58.62;100376.16;4957946;28;20126;-43
2022/04/26 13:22:40;;;;;;;6.07;2.50;;;;;;;18.89;58.50;100371.69;4954036;28;20647;-52
2022/04/26 13:25:07;;;;;;;5.93;2.35;;;;;;;18.89;58.50;100371.69;4952500;28;20227;-45
2022/04/26 13:27:34;;;;;;;6.88;2.28;;;;;;;18.89;58.56;100365.59;4985305;28;20103;-43
2022/04/26 13:30:00;;;;;;;6.85;2.30;;;;;;;18.92;59.09;100372.25;5005002;28;20030;-43
2022/04/26 13:32:27;;;;;;;4.95;2.00;;;;;;;18.97;59.66;100367.19;5003377;28;20999;-41
2022/04/26 13:34:52;;;;;;;7.65;3.25;;;;;;;19.02;60.05;100362.13;5004436;28;20041;-42
2022/04/26 13:37:19;;;;;;;7.63;2.67;;;;;;;19.01;59.83;100366.59;5002597;28;20032;-56
2022/04/26 13:39:45;;;;;;;9.70;2.35;;;;;;;18.99;59.37;100362.53;5005951;28;20030;-47
2022/04/26 13:42:12;;;;;;;7.28;2.17;;;;;;;18.98;58.92;100363.53;5002237;28;20362;-47
2022/04/26 13:44:40;;;;;;;7.80;2.08;;;;;;;18.97;58.85;100359.28;5002435;28;20528;-47
2022/04/26 13:47:06;;;;;;;21.15;2.75;;;;;;;18.96;58.85;100366.38;5004964;28;20036;-47
2022/04/26 13:49:36;;;;;;;6.35;1.98;;;;;;;18.97;58.66;100359.28;5001607;28;20036;-44
2022/04/26 13:52:05;;;;;;;8.43;2.20;;;;;;;18.97;58.81;100361.91;5003702;28;20034;-44
2022/04/26 13:54:31;;;;;;;6.93;2.45;;;;;;;18.97;58.56;100362.72;5004599;28;20022;-41
2022/04/26 13:56:57;;;;;;;5.68;1.92;;;;;;;18.97;58.84;100367.19;5004457;28;20053;-42
2022/04/26 13:59:25;;;;;;;7.18;2.10;;;;;;;18.97;58.95;100356.63;5001341;28;20367;-44
2022/04/26 14:01:54;;;;;;;8.10;2.38;;;;;;;18.97;59.18;100361.91;5005374;28;20525;-44
2022/04/26 14:04:21;;;;;;;7.70;1.90;;;;;;;18.97;59.37;100351.34;5003899;28;20037;-44
2022/04/26 14:06:48;;;;;;;7.10;2.65;;;;;;;18.96;59.56;100355.81;5002614;28;20038;-41
2022/04/26 14:09:14;;;;;;;7.32;2.40;;;;;;;18.96;59.70;100355.00;4999817;28;20432;-41
2022/04/26 14:11:40;;;;;;;5.45;1.88;;;;;;;18.96;59.52;100344.44;4991751;22;20063;-42
2022/04/26 14:22:18;;;;;;;6.68;1.55;;;;;;;18.95;59.23;100340.19;4968263;28;20045;-46
2022/04/26 14:24:45;;;;;;;7.32;1.88;;;;;;;18.95;59.14;100332.25;4966527;28;20035;-41
2022/04/26 14:27:11;;;;;;;6.32;1.95;;;;;;;18.96;59.07;100333.88;4968807;28;20037;-47
2022/04/26 14:29:36;;;;;;;5.63;1.80;;;;;;;18.95;59.09;100333.06;4966023;28;20038;-42
2022/04/26 14:32:02;;;;;;;10.30;2.67;;;;;;;18.96;58.95;100325.97;4969653;28;20462;-44
2022/04/26 14:34:28;;;;;;;5.72;1.90;;;;;;;18.94;59.05;100326.16;4974506;28;20615;-41
2022/04/26 14:36:54;;;;;;;8.73;2.58;;;;;;;18.94;59.24;100331.44;4963525;28;20030;-46
2022/04/26 14:39:19;;;;;;;5.20;1.95;;;;;;;18.93;59.04;100324.53;4966609;28;20034;-43
2022/04/26 14:41:45;;;;;;;5.50;1.92;;;;;;;18.94;59.04;100320.09;4968748;28;20686;-45
2022/04/26 14:44:10;;;;;;;6.22;2.50;;;;;;;18.93;58.79;100323.72;4965941;28;20031;-42
2022/04/26 14:46:36;;;;;;;4.15;1.60;;;;;;;18.93;58.92;100318.47;4970533;28;20034;-41
2022/04/26 14:49:03;;;;;;;4.25;1.55;;;;;;;18.93;58.82;100318.47;4964323;28;20038;-42
2022/04/26 14:51:29;;;;;;;4.97;1.85;;;;;;;18.93;58.84;100315.81;4972453;28;20118;-43
2022/04/26 14:53:54;;;;;;;5.82;1.88;;;;;;;18.92;58.80;100311.56;4972740;28;20117;-42
2022/04/26 14:56:20;;;;;;;6.85;1.90;;;;;;;18.91;58.60;100310.72;4972175;28;20038;-42
2022/04/26 14:58:49;;;;;;;6.47;2.17;;;;;;;18.91;58.65;100310.72;4965359;28;20023;-41
2022/04/26 15:01:16;;;;;;;4.50;1.50;;;;;;;18.90;58.76;100309.16;4970148;28;20027;-43
2022/04/26 15:03:41;;;;;;;5.72;1.60;;;;;;;18.87;58.79;100307.72;4975219;28;20030;-54
2022/04/26 15:06:07;;;;;;;5.63;1.63;;;;;;;18.88;59.21;100309.34;4975762;28;20038;-46
2022/04/26 15:11:16;;;;;;;3.83;1.20;;;;;;;18.87;59.38;100315.63;4967356;28;20073;-40
2022/04/26 15:16:37;;;;;;;4.45;1.40;;;;;;;18.84;59.12;100305.47;4974723;28;20105;-43
2022/04/26 15:19:06;;;;;;;4.75;1.80;;;;;;;18.84;58.86;100305.47;4974659;28;20097;-44
2022/04/26 15:21:32;;;;;;;3.65;1.20;;;;;;;18.85;58.69;100306.28;4960929;28;20642;-40
2022/04/26 15:23:58;;;;;;;8.25;1.75;;;;;;;18.85;58.35;100304.47;4965091;28;20121;-42
2022/04/26 15:26:27;;;;;;;2.67;0.98;;;;;;;18.86;58.16;100305.28;4963588;28;20126;-42
2022/04/26 15:28:52;;;;;;;3.35;1.13;;;;;;;18.85;58.02;100306.28;4963460;28;20031;-41
2022/04/26 15:31:19;;;;;;;3.65;1.10;;;;;;;18.85;58.05;100307.09;4961513;28;20128;-38
2022/04/26 15:33:49;;;;;;;7.10;1.02;;;;;;;18.85;57.93;100307.09;4965256;28;20097;-40
2022/04/26 15:36:16;;;;;;;4.22;1.10;;;;;;;18.85;57.94;100307.09;4961969;28;20035;-40
2022/04/26 15:38:43;;;;;;;4.53;1.85;;;;;;;18.87;58.18;100304.25;4962108;28;20030;-42
2022/04/26 15:41:08;;;;;;;4.30;0.90;;;;;;;18.85;58.16;100304.47;4965224;28;20066;-39